Time;durP1;ratioP1;P1;durP2;ratioP2;P2;SDS_P1;SDS_P2;PMS_P1;PMS_P2;Temp;Humidity;BMP_temperature;BMP_pressure;BME280_temperature;BME280_humidity;BME280_pressure;Samples;Min_cycle;Max_cycle;Signal;HPM_P1;HPM_P2
2023/06/30 00:04:27;;;;;;;4.03;2.40;;;;;;;12.63;100.00;101526.38;10256269;29;20047;-69
2023/06/30 00:09:28;;;;;;;3.28;2.92;;;;;;;12.65;100.00;101524.31;10254246;29;20047;-69
2023/06/30 00:14:28;;;;;;;11.27;3.00;;;;;;;12.62;100.00;101522.00;10253727;29;20031;-69
2023/06/30 00:19:29;;;;;;;11.18;3.70;;;;;;;12.57;100.00;101532.59;10254073;29;20133;-68
2023/06/30 00:24:29;;;;;;;7.55;2.58;;;;;;;12.51;100.00;101511.69;10254713;28;20046;-68
2023/06/30 00:29:30;;;;;;;9.32;3.25;;;;;;;12.45;100.00;101512.47;10252780;28;20348;-69
2023/06/30 00:34:30;;;;;;;10.57;3.53;;;;;;;12.36;100.00;101509.03;10237432;29;20039;-70
2023/06/30 00:39:31;;;;;;;6.32;3.30;;;;;;;12.36;100.00;101514.47;10239666;29;20046;-70
2023/06/30 00:44:31;;;;;;;3.92;2.83;;;;;;;12.34;100.00;101511.91;10254117;28;20148;-69
2023/06/30 00:49:32;;;;;;;11.35;4.00;;;;;;;12.36;100.00;101500.03;10268321;28;20043;-69
2023/06/30 00:54:32;;;;;;;3.05;2.40;;;;;;;12.40;100.00;101504.03;10236223;29;20043;-70
2023/06/30 00:59:32;;;;;;;5.15;3.13;;;;;;;12.42;100.00;101505.53;10251124;29;20032;-69
2023/06/30 01:04:45;;;;;;;8.85;3.90;;;;;;;12.42;100.00;101499.25;10253432;28;20031;-69
2023/06/30 01:09:51;;;;;;;3.25;2.58;;;;;;;12.44;100.00;101499.88;10250974;29;20035;-69
2023/06/30 01:14:51;;;;;;;8.67;3.33;;;;;;;12.44;100.00;101502.59;10235296;29;20085;-69
2023/06/30 01:19:53;;;;;;;3.17;2.97;;;;;;;12.43;100.00;101507.19;10251892;29;20357;-68
2023/06/30 01:24:56;;;;;;;10.98;3.47;;;;;;;12.44;100.00;101505.31;10251783;29;20386;-69
2023/06/30 01:29:57;;;;;;;5.40;2.90;;;;;;;12.51;100.00;101501.66;10251631;29;20383;-69
2023/06/30 01:34:57;;;;;;;6.25;2.85;;;;;;;12.56;100.00;101496.44;10250697;29;20091;-69
2023/06/30 01:39:59;;;;;;;6.93;2.83;;;;;;;12.59;100.00;101497.09;10250872;29;20046;-70
2023/06/30 01:44:59;;;;;;;12.10;2.60;;;;;;;12.61;100.00;101493.16;10250092;28;20073;-69
2023/06/30 01:50:00;;;;;;;5.70;1.95;;;;;;;12.63;100.00;101484.78;10251207;29;20028;-68
2023/06/30 01:55:02;;;;;;;2.05;1.95;;;;;;;12.62;100.00;101485.84;10234176;29;20035;-68
2023/06/30 02:00:05;;;;;;;3.75;2.40;;;;;;;12.62;100.00;101480.41;10250011;29;20042;-69
2023/06/30 02:05:06;;;;;;;11.20;2.90;;;;;;;12.59;100.00;101478.09;10249910;29;20070;-70
2023/06/30 02:10:07;;;;;;;4.68;2.25;;;;;;;12.55;100.00;101483.06;10249926;29;20126;-69
2023/06/30 02:15:08;;;;;;;8.30;2.40;;;;;;;12.47;100.00;101478.59;10249900;29;20086;-69
2023/06/30 02:20:10;;;;;;;3.13;2.67;;;;;;;12.43;100.00;101482.75;10249958;29;20038;-68
2023/06/30 02:25:10;;;;;;;4.47;2.53;;;;;;;12.38;100.00;101478.94;10250922;28;20118;-69
2023/06/30 02:30:11;;;;;;;11.95;3.15;;;;;;;12.33;100.00;101487.69;10251160;29;20472;-68
2023/06/30 02:35:12;;;;;;;7.65;2.70;;;;;;;12.28;100.00;101481.97;10251428;28;20051;-70
2023/06/30 02:40:13;;;;;;;11.68;3.00;;;;;;;12.20;100.00;101471.28;10250315;29;20051;-69
2023/06/30 02:45:13;;;;;;;7.80;2.55;;;;;;;12.21;100.00;101478.38;10233464;29;20121;-68
2023/06/30 02:50:14;;;;;;;4.93;3.10;;;;;;;12.20;100.00;101476.69;10248627;29;20039;-69
2023/06/30 02:55:14;;;;;;;3.30;2.30;;;;;;;12.17;100.00;101466.22;10255805;28;20043;-70
2023/06/30 03:00:16;;;;;;;11.70;3.92;;;;;;;12.12;100.00;101464.06;10257327;29;20448;-69
2023/06/30 03:05:17;;;;;;;8.88;2.72;;;;;;;12.13;100.00;101475.81;10259636;28;20062;-69
2023/06/30 03:10:17;;;;;;;7.85;2.90;;;;;;;12.09;100.00;101478.03;10273216;28;20031;-69
2023/06/30 03:15:17;;;;;;;4.97;2.45;;;;;;;12.09;100.00;101470.75;10258896;29;20391;-70
2023/06/30 03:20:18;;;;;;;8.55;3.90;;;;;;;12.12;100.00;101474.09;10257064;29;20115;-69
2023/06/30 03:25:19;;;;;;;13.40;3.35;;;;;;;12.05;100.00;101480.31;10257391;28;20078;-68
2023/06/30 03:30:19;;;;;;;3.47;2.92;;;;;;;12.03;100.00;101476.13;10256858;28;20119;-68
2023/06/30 03:35:20;;;;;;;7.50;3.80;;;;;;;12.06;100.00;101478.41;10255764;29;20043;-70
2023/06/30 03:40:20;;;;;;;3.90;3.05;;;;;;;12.10;100.00;101483.28;10256348;28;20485;-68
2023/06/30 03:45:21;;;;;;;9.38;3.95;;;;;;;12.18;100.00;101473.31;10256041;29;20122;-69
2023/06/30 03:50:21;;;;;;;11.20;3.08;;;;;;;12.21;100.00;101464.78;10255851;28;20083;-70
2023/06/30 03:55:21;;;;;;;5.68;3.25;;;;;;;12.28;100.00;101460.25;10255474;29;20431;-69
2023/06/30 04:00:22;;;;;;;9.13;3.92;;;;;;;12.38;100.00;101468.06;10253168;29;20075;-69
2023/06/30 04:05:22;;;;;;;13.10;3.80;;;;;;;12.48;100.00;101463.16;10253923;28;20087;-69
2023/06/30 04:10:23;;;;;;;8.70;3.03;;;;;;;12.66;100.00;101459.94;10255747;28;20039;-69
2023/06/30 04:15:23;;;;;;;4.95;4.30;;;;;;;12.87;100.00;101459.06;10254569;29;20032;-69
2023/06/30 04:20:24;;;;;;;20.20;4.40;;;;;;;13.02;100.00;101455.19;10259084;29;20031;-68
2023/06/30 04:25:24;;;;;;;4.93;4.30;;;;;;;13.17;100.00;101448.78;10258742;28;20109;-68
2023/06/30 04:30:24;;;;;;;5.97;3.08;;;;;;;13.31;100.00;101452.44;10236579;29;20035;-68
2023/06/30 04:35:25;;;;;;;9.18;4.32;;;;;;;13.47;100.00;101450.22;10236477;29;20381;-68
2023/06/30 04:40:25;;;;;;;2.70;2.53;;;;;;;13.78;100.00;101457.00;10253411;28;20122;-68
2023/06/30 04:45:26;;;;;;;11.85;3.42;;;;;;;14.80;100.00;101458.56;10251485;29;20075;-69
2023/06/30 04:50:26;;;;;;;8.45;2.60;;;;;;;15.55;100.00;101458.16;10252917;29;20043;-68
2023/06/30 04:55:27;;;;;;;4.78;3.95;;;;;;;16.20;100.00;101467.06;10251462;29;20138;-69
2023/06/30 05:00:27;;;;;;;6.03;3.53;;;;;;;16.81;100.00;101471.00;10252655;29;20082;-69
2023/06/30 05:05:27;;;;;;;10.70;4.22;;;;;;;17.10;100.00;101464.00;10251889;29;20091;-69
2023/06/30 05:10:28;;;;;;;7.57;3.13;;;;;;;17.56;100.00;101451.63;10252142;29;20065;-69
2023/06/30 05:15:29;;;;;;;9.13;3.20;;;;;;;18.00;100.00;101455.06;10251801;29;20042;-68
2023/06/30 05:20:32;;;;;;;6.22;3.22;;;;;;;18.21;100.00;101450.13;10251993;28;20459;-69
2023/06/30 05:25:32;;;;;;;6.93;3.13;;;;;;;18.52;100.00;101448.97;10253094;28;20070;-68
2023/06/30 05:30:32;;;;;;;2.97;2.78;;;;;;;19.11;100.00;101449.81;10251696;29;20077;-69
2023/06/30 05:35:33;;;;;;;6.80;2.90;;;;;;;19.49;100.00;101442.94;10250262;29;20035;-68
2023/06/30 05:40:33;;;;;;;5.40;2.83;;;;;;;19.87;100.00;101449.75;10251601;29;20510;-69
2023/06/30 05:45:33;;;;;;;9.73;4.22;;;;;;;20.29;100.00;101444.72;10250258;29;20059;-71
2023/06/30 05:50:34;;;;;;;3.10;2.90;;;;;;;20.48;100.00;101452.75;10250898;29;20032;-68
2023/06/30 05:55:34;;;;;;;4.72;2.88;;;;;;;20.89;100.00;101446.81;10251672;29;20039;-68
2023/06/30 06:00:35;;;;;;;2.63;2.42;;;;;;;21.23;100.00;101454.16;10250692;29;20356;-68
2023/06/30 06:05:35;;;;;;;7.70;2.70;;;;;;;21.71;100.00;101455.34;10250850;29;20070;-70
2023/06/30 06:10:36;;;;;;;2.85;2.65;;;;;;;21.69;100.00;101454.75;10249335;29;20479;-70
2023/06/30 06:15:36;;;;;;;10.52;3.15;;;;;;;22.02;100.00;101451.00;10251991;29;20039;-69
2023/06/30 06:20:36;;;;;;;6.28;2.75;;;;;;;22.57;98.21;101441.56;10251300;29;20396;-69
2023/06/30 06:25:38;;;;;;;5.80;3.33;;;;;;;23.00;95.60;101445.16;10233901;29;20043;-68
2023/06/30 06:30:38;;;;;;;6.85;3.95;;;;;;;23.42;92.31;101449.78;10253934;28;20050;-68
2023/06/30 06:35:38;;;;;;;4.63;2.88;;;;;;;23.62;88.23;101455.41;10257437;29;20127;-69
2023/06/30 06:40:39;;;;;;;5.82;3.65;;;;;;;23.95;84.91;101447.78;10241300;29;20545;-69
2023/06/30 06:45:41;;;;;;;12.05;2.88;;;;;;;24.57;82.43;101440.38;10258051;29;20094;-69
2023/06/30 06:50:41;;;;;;;2.47;2.20;;;;;;;24.79;77.03;101445.59;10256868;29;20075;-69
2023/06/30 06:55:42;;;;;;;3.65;2.05;;;;;;;24.95;66.81;101435.31;10257133;29;20223;-68
2023/06/30 07:00:43;;;;;;;14.55;2.88;;;;;;;25.22;65.74;101443.31;10256537;29;20039;-68
2023/06/30 07:05:44;;;;;;;4.30;2.25;;;;;;;25.63;66.30;101427.31;10257886;28;20066;-69
2023/06/30 07:10:45;;;;;;;2.35;2.20;;;;;;;26.44;68.27;101431.44;10256816;28;20074;-66
2023/06/30 07:15:47;;;;;;;4.43;1.90;;;;;;;26.64;64.27;101435.19;10239354;29;20074;-67
2023/06/30 07:20:48;;;;;;;5.07;2.22;;;;;;;26.67;64.98;101435.44;10254784;29;20031;-66
2023/06/30 07:25:48;;;;;;;2.22;1.92;;;;;;;26.48;55.56;101428.94;10255449;28;20114;-65
2023/06/30 07:30:49;;;;;;;2.30;2.15;;;;;;;26.13;56.49;101436.44;10256822;29;20463;-67
2023/06/30 07:35:49;;;;;;;2.20;1.92;;;;;;;26.59;56.74;101427.75;10254545;29;20051;-64
2023/06/30 07:40:50;;;;;;;4.70;2.28;;;;;;;25.88;55.65;101429.13;10254433;28;20031;-64
2023/06/30 07:45:50;;;;;;;2.53;2.33;;;;;;;23.79;60.04;101429.50;10269451;28;20117;-65
2023/06/30 07:50:51;;;;;;;2.15;2.05;;;;;;;25.68;59.11;101421.72;10253764;29;20131;-68
2023/06/30 07:55:51;;;;;;;2.30;2.10;;;;;;;26.17;59.57;101429.19;10255269;28;20383;-68
2023/06/30 08:00:51;;;;;;;4.93;1.80;;;;;;;26.60;55.11;101418.28;10254561;29;20059;-67
2023/06/30 08:05:52;;;;;;;10.15;1.83;;;;;;;26.82;55.66;101414.16;10253220;29;20170;-67
2023/06/30 08:10:52;;;;;;;3.30;1.77;;;;;;;25.68;54.85;101418.09;10254285;29;20039;-67
2023/06/30 08:15:53;;;;;;;1.85;1.75;;;;;;;25.29;54.36;101405.00;10253908;28;20220;-66
2023/06/30 08:20:55;;;;;;;4.82;2.08;;;;;;;25.92;58.05;101418.28;10254014;29;20170;-67
2023/06/30 08:25:56;;;;;;;1.35;1.35;;;;;;;26.35;55.77;101412.94;10253529;29;20043;-67
2023/06/30 08:30:56;;;;;;;1.45;1.38;;;;;;;26.06;51.84;101413.72;10252168;29;20046;-65
2023/06/30 08:35:57;;;;;;;1.90;1.77;;;;;;;24.48;52.33;101404.09;10253285;29;20039;-65
2023/06/30 08:40:58;;;;;;;1.60;1.50;;;;;;;24.61;57.09;101397.16;10251923;29;20119;-66
2023/06/30 08:45:59;;;;;;;2.28;1.98;;;;;;;24.85;51.78;101391.84;10253146;28;20055;-68
2023/06/30 08:50:59;;;;;;;3.05;2.17;;;;;;;26.64;48.73;101391.59;10252408;28;20067;-66
2023/06/30 08:56:00;;;;;;;1.38;1.27;;;;;;;25.65;47.45;101379.84;10253619;28;20066;-64
2023/06/30 09:01:00;;;;;;;2.63;2.05;;;;;;;25.70;51.54;101372.34;10251437;29;20034;-68
2023/06/30 09:06:01;;;;;;;3.05;2.00;;;;;;;26.45;47.98;101368.41;10251446;29;20023;-68
2023/06/30 09:11:04;;;;;;;1.45;1.35;;;;;;;27.10;45.54;101368.00;10250693;29;20063;-67
2023/06/30 09:16:08;;;;;;;2.25;2.15;;;;;;;26.19;47.28;101360.31;10252134;28;20343;-68
2023/06/30 09:21:08;;;;;;;1.77;1.67;;;;;;;25.54;51.81;101350.53;10251656;29;20027;-69
2023/06/30 09:26:14;;;;;;;4.53;2.03;;;;;;;25.82;49.52;101351.78;10249797;29;20061;-69
2023/06/30 09:31:14;;;;;;;1.98;1.85;;;;;;;25.09;49.33;101353.25;10250915;29;20387;-70
2023/06/30 09:36:18;;;;;;;2.25;2.13;;;;;;;25.09;48.93;101341.34;10251366;28;20122;-67
2023/06/30 09:41:19;;;;;;;3.20;1.75;;;;;;;26.89;46.53;101348.78;10250862;29;20050;-68
2023/06/30 09:46:20;;;;;;;6.47;3.15;;;;;;;27.11;45.65;101350.16;10249779;29;20390;-67
2023/06/30 09:51:21;;;;;;;2.35;1.92;;;;;;;26.95;46.03;101352.31;10251044;28;20451;-66
2023/06/30 09:56:22;;;;;;;2.42;2.10;;;;;;;27.77;44.14;101340.94;10249502;29;20031;-66
2023/06/30 10:01:23;;;;;;;2.72;1.83;;;;;;;26.94;43.09;101341.50;10248946;29;20035;-72
2023/06/30 10:06:24;;;;;;;8.32;2.38;;;;;;;26.70;43.99;101335.94;10251208;28;20055;-74
2023/06/30 10:11:25;;;;;;;7.18;1.88;;;;;;;27.74;42.54;101335.94;10249314;29;20423;-69
2023/06/30 10:16:26;;;;;;;2.72;2.53;;;;;;;26.72;42.61;101334.53;10234935;29;20036;-80
2023/06/30 10:21:27;;;;;;;2.97;1.88;;;;;;;25.97;44.63;101335.81;10249871;29;20162;-68
2023/06/30 10:26:27;;;;;;;4.10;2.55;;;;;;;27.01;43.64;101334.47;10249993;29;20035;-72
2023/06/30 10:31:28;;;;;;;9.13;2.70;;;;;;;26.94;42.18;101324.84;10251212;28;20439;-72
2023/06/30 10:36:28;;;;;;;3.80;3.28;;;;;;;28.13;41.55;101312.47;10233400;29;20470;-68
2023/06/30 10:41:29;;;;;;;3.17;1.90;;;;;;;29.11;40.06;101303.06;10249834;29;20186;-68
2023/06/30 10:46:47;;;;;;;2.38;2.17;;;;;;;29.37;36.35;101298.53;10249963;28;20163;-70
2023/06/30 10:51:51;;;;;;;2.15;1.95;;;;;;;28.96;36.25;101299.44;10249817;29;20034;-70
2023/06/30 10:56:52;;;;;;;2.20;2.10;;;;;;;28.92;37.10;101301.19;10247825;29;20439;-68
2023/06/30 11:02:17;;;;;;;6.25;2.58;;;;;;;28.03;38.76;101291.22;10249297;28;20110;-70
2023/06/30 11:07:28;;;;;;;2.10;2.00;;;;;;;29.01;36.82;101301.34;10250101;28;20034;-71
2023/06/30 11:12:29;;;;;;;5.55;2.00;;;;;;;28.69;35.44;101288.31;10233992;29;20074;-69
2023/06/30 11:17:51;;;;;;;3.30;1.90;;;;;;;27.48;36.95;101279.06;10253896;28;20432;-69
2023/06/30 11:23:02;;;;;;;2.15;2.00;;;;;;;27.48;37.57;101265.16;10256034;28;20431;-70
2023/06/30 11:28:04;;;;;;;2.63;1.88;;;;;;;29.18;37.02;101256.88;10254107;29;20071;-70
2023/06/30 11:33:05;;;;;;;2.08;1.98;;;;;;;27.69;36.47;101246.97;10254167;29;20375;-69
2023/06/30 11:38:08;;;;;;;6.32;1.60;;;;;;;27.03;39.29;101259.94;10254224;29;20027;-69
2023/06/30 11:43:08;;;;;;;2.17;2.03;;;;;;;26.55;39.83;101260.03;10253607;29;20100;-64
2023/06/30 11:48:09;;;;;;;2.92;2.28;;;;;;;26.74;39.73;101256.44;10256031;29;20059;-67
2023/06/30 11:53:09;;;;;;;2.67;2.42;;;;;;;27.74;37.15;101252.47;10238262;29;20114;-71
2023/06/30 11:58:09;;;;;;;3.50;1.88;;;;;;;28.66;37.15;101256.31;10254830;29;20085;-68
2023/06/30 12:03:14;;;;;;;2.97;2.75;;;;;;;29.90;36.21;101255.13;10254472;29;20058;-70
2023/06/30 12:08:14;;;;;;;4.50;1.83;;;;;;;29.29;36.07;101251.88;10253210;29;20039;-69
2023/06/30 12:13:17;;;;;;;3.30;2.55;;;;;;;29.41;36.56;101243.75;10253149;29;20123;-72
2023/06/30 12:18:17;;;;;;;2.80;2.60;;;;;;;29.24;35.99;101238.06;10254588;28;20455;-71
2023/06/30 12:23:17;;;;;;;3.97;2.63;;;;;;;28.86;37.67;101229.16;10237322;29;20031;-69
2023/06/30 12:28:18;;;;;;;3.75;3.20;;;;;;;28.12;37.78;101223.69;10235896;29;20057;-77
2023/06/30 12:33:19;;;;;;;3.47;3.17;;;;;;;29.00;37.11;101213.19;10253832;29;20057;-71
2023/06/30 12:38:19;;;;;;;4.50;3.38;;;;;;;29.94;36.92;101205.06;10253501;28;20375;-68
2023/06/30 12:43:20;;;;;;;3.38;2.90;;;;;;;28.95;39.05;101207.75;10253026;28;20126;-68
2023/06/30 12:48:20;;;;;;;9.32;3.47;;;;;;;29.55;37.84;101201.84;10204501;28;20043;-65
2023/06/30 12:53:20;;;;;;;3.20;2.55;;;;;;;28.83;37.73;101207.47;10251389;29;20047;-65
2023/06/30 12:58:21;;;;;;;1.85;1.75;;;;;;;28.69;37.66;101201.94;10252144;28;20034;-68
2023/06/30 13:03:21;;;;;;;2.15;2.05;;;;;;;28.44;37.76;101201.34;10252427;29;20035;-71
2023/06/30 13:08:22;;;;;;;1.55;1.52;;;;;;;28.81;36.21;101199.41;10252070;29;20027;-66
2023/06/30 13:13:22;;;;;;;3.50;1.63;;;;;;;29.23;36.67;101190.94;10251744;29;20467;-70
2023/06/30 13:18:23;;;;;;;9.00;2.55;;;;;;;29.56;35.57;101195.13;10251362;28;20086;-68
2023/06/30 13:23:23;;;;;;;2.80;1.58;;;;;;;29.27;35.05;101183.59;10250198;29;20039;-67
2023/06/30 13:28:23;;;;;;;3.95;2.35;;;;;;;29.26;32.64;101191.16;10250723;29;20027;-70
2023/06/30 13:33:25;;;;;;;2.05;1.85;;;;;;;29.09;33.53;101183.44;10249714;29;20382;-67
2023/06/30 13:38:25;;;;;;;9.10;3.33;;;;;;;28.98;33.38;101180.06;10217552;28;20031;-66
2023/06/30 13:43:28;;;;;;;2.90;2.42;;;;;;;28.56;33.71;101180.47;10249818;29;20113;-65
2023/06/30 13:48:29;;;;;;;1.98;1.58;;;;;;;28.58;33.25;101178.19;10233798;29;20131;-66
2023/06/30 13:53:29;;;;;;;1.27;1.00;;;;;;;28.36;34.55;101170.56;10249907;29;20399;-66
2023/06/30 13:58:30;;;;;;;11.10;2.47;;;;;;;28.41;34.08;101171.31;10249807;29;20085;-66
2023/06/30 14:03:30;;;;;;;10.10;2.15;;;;;;;28.10;35.30;101148.00;10250882;28;20118;-67
2023/06/30 14:08:32;;;;;;;1.88;1.77;;;;;;;27.17;36.01;101165.50;10249874;28;20039;-69
2023/06/30 14:13:33;;;;;;;2.75;1.83;;;;;;;27.64;35.87;101151.66;10250040;28;20118;-67
2023/06/30 14:18:33;;;;;;;2.40;2.17;;;;;;;28.04;36.69;101145.31;10249739;29;20123;-66
2023/06/30 14:23:34;;;;;;;3.08;1.63;;;;;;;28.00;35.50;101141.50;10232855;29;20027;-68
2023/06/30 14:28:34;;;;;;;2.05;1.90;;;;;;;27.81;36.06;101130.47;10249761;29;20332;-71
2023/06/30 14:33:35;;;;;;;1.75;1.55;;;;;;;27.48;36.63;101124.13;10250372;29;20031;-70
2023/06/30 14:38:36;;;;;;;5.30;2.15;;;;;;;27.35;36.80;101125.72;10251484;28;20123;-72
2023/06/30 14:43:36;;;;;;;5.32;1.52;;;;;;;27.18;37.86;101121.84;10232173;29;20143;-70
2023/06/30 14:48:37;;;;;;;2.13;1.92;;;;;;;27.33;36.33;101116.03;10249915;28;20035;-70
2023/06/30 14:53:37;;;;;;;5.55;1.77;;;;;;;27.08;37.91;101117.25;10255799;29;20475;-70
2023/06/30 14:58:38;;;;;;;6.20;2.22;;;;;;;26.91;37.73;101128.94;10256915;28;20031;-70
2023/06/30 15:03:38;;;;;;;3.90;1.80;;;;;;;26.76;38.16;101115.28;10256215;29;20042;-70
2023/06/30 15:08:38;;;;;;;3.60;1.70;;;;;;;26.01;39.35;101127.94;10256120;29;20042;-69
2023/06/30 15:13:39;;;;;;;2.40;1.90;;;;;;;25.85;39.77;101118.97;10257833;29;20031;-70
2023/06/30 15:18:39;;;;;;;7.32;1.67;;;;;;;26.01;39.36;101110.47;10255210;29;20075;-69
2023/06/30 15:23:40;;;;;;;4.97;1.98;;;;;;;25.27;40.37;101117.03;10257247;29;20043;-71
2023/06/30 15:28:40;;;;;;;6.30;2.35;;;;;;;24.93;41.10;101119.75;10255825;28;20038;-70
2023/06/30 15:33:41;;;;;;;3.30;2.55;;;;;;;24.88;41.14;101110.66;10255785;29;20043;-70
2023/06/30 15:38:41;;;;;;;7.15;2.75;;;;;;;24.56;41.85;101104.50;10257988;29;20443;-70
2023/06/30 15:43:41;;;;;;;12.43;1.60;;;;;;;24.12;42.28;101109.94;10255045;29;20068;-70
2023/06/30 15:48:42;;;;;;;1.70;1.60;;;;;;;23.23;44.12;101115.13;10254293;29;20404;-69
2023/06/30 15:53:42;;;;;;;4.82;2.15;;;;;;;22.80;45.66;101099.88;10256051;28;20043;-69
2023/06/30 15:58:43;;;;;;;4.47;1.67;;;;;;;22.39;47.57;101103.38;10253606;29;20472;-70
2023/06/30 16:03:43;;;;;;;8.52;1.95;;;;;;;22.00;48.33;101102.94;10269250;28;20065;-70
2023/06/30 16:08:44;;;;;;;7.50;2.17;;;;;;;21.85;48.40;101092.66;10270214;28;20031;-69
2023/06/30 16:13:44;;;;;;;5.32;2.40;;;;;;;21.90;47.59;101083.59;10254460;29;20125;-70
2023/06/30 16:18:44;;;;;;;8.23;1.88;;;;;;;21.93;45.70;101075.63;10253194;29;20042;-70
2023/06/30 16:23:45;;;;;;;3.72;2.53;;;;;;;22.05;45.09;101072.63;10254414;28;20070;-69
2023/06/30 16:28:46;;;;;;;3.80;2.08;;;;;;;21.93;44.51;101067.34;10253967;28;20027;-69
2023/06/30 16:33:46;;;;;;;8.27;2.22;;;;;;;21.87;44.47;101073.94;10252152;29;20035;-70
2023/06/30 16:38:47;;;;;;;4.35;2.85;;;;;;;21.72;44.43;101057.31;10253388;29;20031;-70
2023/06/30 16:43:49;;;;;;;2.58;2.38;;;;;;;21.71;45.55;101050.16;10251209;29;20102;-69
2023/06/30 16:48:49;;;;;;;2.83;2.58;;;;;;;21.64;46.17;101046.81;10220577;29;20123;-70
2023/06/30 16:53:49;;;;;;;8.48;2.17;;;;;;;;;;10269287;28;20043;-69
2023/06/30 16:58:50;;;;;;;4.60;2.10;;;;;;;21.38;44.63;101032.03;10254383;28;20118;-70
2023/06/30 17:03:50;;;;;;;4.15;2.42;;;;;;;21.41;44.51;101028.75;10253880;29;20067;-70
2023/06/30 17:08:51;;;;;;;6.35;2.75;;;;;;;21.19;46.13;101015.13;10252775;29;20031;-69
2023/06/30 17:13:51;;;;;;;7.28;3.28;;;;;;;20.97;47.51;101013.31;10266882;28;20403;-69
2023/06/30 17:18:51;;;;;;;11.55;3.40;;;;;;;20.86;49.67;101006.88;10252988;29;20043;-70
2023/06/30 17:23:52;;;;;;;14.25;3.25;;;;;;;20.79;51.64;101021.97;10251981;29;20078;-70
2023/06/30 17:28:52;;;;;;;3.17;2.55;;;;;;;20.76;52.11;101004.06;10251527;29;20066;-69
2023/06/30 17:33:53;;;;;;;3.22;2.55;;;;;;;20.69;53.67;101011.72;10251440;28;20074;-70
2023/06/30 17:38:54;;;;;;;5.25;3.88;;;;;;;20.49;54.33;101011.50;10265504;28;20355;-70
2023/06/30 17:43:54;;;;;;;4.85;3.40;;;;;;;20.30;54.96;101002.78;10251946;28;20133;-70
2023/06/30 17:49:15;;;;;;;4.53;3.00;;;;;;;20.19;56.65;100993.59;10251093;29;20054;-69
2023/06/30 17:54:16;;;;;;;6.90;3.17;;;;;;;20.17;58.09;100993.88;10250638;29;20031;-70
2023/06/30 17:59:16;;;;;;;11.27;3.00;;;;;;;20.24;59.42;101001.91;10251806;28;20423;-69
2023/06/30 18:04:17;;;;;;;4.18;2.50;;;;;;;20.09;58.94;100988.81;10251349;28;20042;-69
2023/06/30 18:09:17;;;;;;;8.73;3.25;;;;;;;19.96;57.50;100984.56;10249403;29;20122;-70
2023/06/30 18:14:17;;;;;;;11.52;3.22;;;;;;;19.94;58.78;100988.66;10249422;29;20391;-69
2023/06/30 18:19:18;;;;;;;5.13;2.60;;;;;;;19.81;59.82;100989.03;10250303;29;20104;-70
2023/06/30 18:24:19;;;;;;;4.35;3.03;;;;;;;19.76;61.05;100984.34;10251046;28;20396;-70
2023/06/30 18:29:22;;;;;;;9.60;3.10;;;;;;;19.76;61.47;100981.59;10258532;28;20391;-69
2023/06/30 18:34:23;;;;;;;7.88;2.72;;;;;;;19.77;62.50;100968.66;10257574;29;20043;-70
2023/06/30 18:39:23;;;;;;;10.55;4.97;;;;;;;19.76;62.56;100964.28;10257913;29;20062;-66
2023/06/30 18:44:24;;;;;;;11.77;3.03;;;;;;;19.72;64.07;100967.53;10257819;28;20140;-63
2023/06/30 18:49:25;;;;;;;8.43;3.40;;;;;;;19.56;65.55;100965.66;10256142;29;20038;-64
2023/06/30 18:54:25;;;;;;;2.53;2.33;;;;;;;19.51;65.08;100962.84;10257354;29;20474;-64
2023/06/30 18:59:26;;;;;;;3.35;2.63;;;;;;;19.33;67.89;100955.72;10257528;29;20031;-66
2023/06/30 19:04:26;;;;;;;5.18;2.90;;;;;;;19.27;69.33;100948.50;10255660;29;20454;-66
2023/06/30 19:09:27;;;;;;;5.15;2.33;;;;;;;19.25;68.96;100946.03;10255200;29;20035;-66
2023/06/30 19:14:27;;;;;;;8.95;2.90;;;;;;;19.16;71.05;100933.00;10257532;28;20118;-66
2023/06/30 19:19:30;;;;;;;5.35;2.65;;;;;;;19.23;69.74;100937.22;10256068;29;20046;-65
2023/06/30 19:24:31;;;;;;;4.10;2.13;;;;;;;19.23;70.66;100939.97;10257266;28;20039;-65
2023/06/30 19:29:32;;;;;;;14.65;3.45;;;;;;;19.26;67.38;100927.63;10256068;28;20478;-68
2023/06/30 19:34:32;;;;;;;4.40;2.88;;;;;;;19.25;70.01;100915.84;10255877;29;20042;-67
2023/06/30 19:39:34;;;;;;;6.10;2.53;;;;;;;19.21;70.55;100911.13;10256809;28;20074;-65
2023/06/30 19:44:34;;;;;;;4.65;2.33;;;;;;;19.16;70.51;100911.88;10255622;28;20432;-66
2023/06/30 19:49:34;;;;;;;6.65;2.97;;;;;;;19.14;70.44;100911.28;10255313;29;20046;-65
2023/06/30 19:54:35;;;;;;;3.08;1.92;;;;;;;19.17;70.10;100899.78;10237704;29;20047;-66
2023/06/30 19:59:35;;;;;;;4.45;2.20;;;;;;;19.15;70.35;100895.66;10254345;28;20069;-65
2023/06/30 20:04:36;;;;;;;15.07;3.03;;;;;;;19.14;70.79;100899.47;10221925;29;20050;-67
2023/06/30 20:09:38;;;;;;;9.85;2.42;;;;;;;19.17;70.82;100877.84;10255233;28;20046;-66
2023/06/30 20:14:38;;;;;;;7.82;3.33;;;;;;;19.21;69.99;100881.75;10253832;29;20114;-64
2023/06/30 20:19:39;;;;;;;2.53;1.95;;;;;;;19.22;71.17;100882.56;10269726;28;20130;-66
2023/06/30 20:24:40;;;;;;;5.43;3.28;;;;;;;19.12;73.15;100877.78;10254084;28;20336;-64
2023/06/30 20:29:40;;;;;;;9.50;2.58;;;;;;;19.04;75.26;100872.72;10252811;29;20031;-65
2023/06/30 20:34:41;;;;;;;4.60;2.90;;;;;;;19.05;74.30;100869.75;10254106;29;20039;-65
2023/06/30 20:39:41;;;;;;;8.60;3.05;;;;;;;19.04;74.62;100854.34;10252144;29;20031;-64
2023/06/30 20:44:42;;;;;;;2.88;2.22;;;;;;;18.96;75.62;100867.69;10253838;28;20066;-64
2023/06/30 20:49:42;;;;;;;6.10;2.60;;;;;;;18.91;76.36;100846.47;10251710;28;20039;-65
2023/06/30 20:54:43;;;;;;;8.77;2.15;;;;;;;18.86;76.53;100846.44;10252560;28;20438;-67
2023/06/30 20:59:43;;;;;;;5.53;2.92;;;;;;;18.86;75.76;100835.47;10251214;29;20491;-66
2023/06/30 21:04:44;;;;;;;4.45;2.47;;;;;;;18.80;76.25;100831.81;10252202;29;20102;-66
2023/06/30 21:09:44;;;;;;;2.50;2.08;;;;;;;18.79;77.30;100824.69;10251376;29;20424;-65
2023/06/30 21:14:45;;;;;;;5.03;2.47;;;;;;;18.84;76.39;100814.84;10252190;28;20058;-65
2023/06/30 21:19:45;;;;;;;2.40;2.13;;;;;;;18.90;75.36;100800.09;10235085;29;20479;-65
2023/06/30 21:24:46;;;;;;;3.88;1.83;;;;;;;18.88;77.62;100813.25;10251076;29;20059;-66
2023/06/30 21:29:46;;;;;;;3.83;2.75;;;;;;;18.87;76.44;100804.19;10251220;29;20058;-67
2023/06/30 21:34:47;;;;;;;8.60;2.65;;;;;;;18.84;77.83;100784.66;10249866;29;20058;-67
2023/06/30 21:39:47;;;;;;;3.10;2.15;;;;;;;18.81;78.12;100784.06;10250820;29;20047;-68
2023/06/30 21:44:48;;;;;;;3.58;1.88;;;;;;;18.83;78.00;100770.13;10249620;29;20062;-71
2023/06/30 21:49:48;;;;;;;1.80;1.70;;;;;;;18.80;78.20;100765.97;10251872;29;20035;-69
2023/06/30 21:54:48;;;;;;;2.50;2.15;;;;;;;18.81;78.90;100764.88;10249921;29;20042;-68
2023/06/30 21:59:49;;;;;;;8.07;1.65;;;;;;;18.83;79.24;100761.88;10251440;29;20035;-69
2023/06/30 22:04:49;;;;;;;4.65;2.10;;;;;;;18.79;79.86;100753.34;10249541;29;20107;-69
2023/06/30 22:09:49;;;;;;;3.92;2.42;;;;;;;18.74;80.42;100745.03;10251448;29;20062;-68
2023/06/30 22:14:50;;;;;;;3.03;2.15;;;;;;;18.77;81.67;100733.56;10251204;29;20066;-68
2023/06/30 22:19:50;;;;;;;3.03;1.92;;;;;;;18.78;80.23;100724.22;10249525;29;20035;-69
2023/06/30 22:24:51;;;;;;;3.40;1.92;;;;;;;18.17;86.30;100728.91;10250064;29;20355;-68
2023/06/30 22:29:51;;;;;;;2.33;1.98;;;;;;;17.72;88.14;100712.56;10250119;28;20042;-68
2023/06/30 22:34:51;;;;;;;4.70;1.65;;;;;;;17.41;95.91;100714.78;10251680;29;20039;-68
2023/06/30 22:39:52;;;;;;;2.90;1.85;;;;;;;17.31;97.44;100726.38;10249598;28;20067;-68
2023/06/30 22:44:52;;;;;;;6.97;2.67;;;;;;;17.19;100.00;100723.69;10233193;29;20047;-68
2023/06/30 22:49:53;;;;;;;1.65;1.55;;;;;;;17.23;100.00;100710.38;10248662;29;20368;-68
2023/06/30 22:54:53;;;;;;;4.90;2.10;;;;;;;17.00;100.00;100699.53;10250720;29;20084;-67
2023/06/30 22:59:53;;;;;;;4.80;2.38;;;;;;;16.67;100.00;100696.44;10249889;29;20122;-69